createdAt,value
2019-02-23T00:02:27.284Z,66.60
2019-02-23T00:06:32.014Z,67.80
2019-02-23T00:10:36.862Z,67.60
2019-02-23T00:14:41.841Z,67.80
2019-02-23T00:18:46.658Z,67.40
2019-02-23T00:22:51.700Z,67.90
2019-02-23T00:26:56.443Z,68.40
2019-02-23T00:31:01.459Z,67.00
2019-02-23T00:35:06.587Z,67.40
2019-02-23T00:39:11.456Z,67.20
2019-02-23T00:43:16.555Z,66.70
2019-02-23T00:47:21.303Z,67.00
2019-02-23T00:51:26.195Z,67.50
2019-02-23T00:55:31.011Z,67.30
2019-02-23T00:59:35.860Z,67.30
2019-02-23T01:03:40.748Z,67.50
2019-02-23T01:07:45.885Z,67.10
2019-02-23T01:11:50.695Z,67.20
2019-02-23T01:15:55.436Z,67.00
2019-02-23T01:20:00.407Z,67.50
2019-02-23T01:24:05.300Z,66.90
2019-02-23T01:28:10.161Z,66.40
2019-02-23T01:32:15.340Z,66.10
2019-02-23T01:36:20.224Z,66.40
2019-02-23T01:40:25.285Z,66.50
2019-02-23T01:44:30.200Z,66.60
2019-02-23T01:48:35.093Z,66.50
2019-02-23T01:52:40.566Z,66.70
2019-02-23T01:56:45.519Z,67.20
2019-02-23T02:00:50.486Z,67.60
2019-02-23T02:04:56.504Z,66.70
2019-02-23T02:09:01.342Z,66.60
2019-02-23T02:13:07.984Z,66.70
2019-02-23T02:17:13.165Z,67.00
2019-02-23T02:21:18.295Z,67.10
2019-02-23T02:25:23.126Z,67.20
2019-02-23T02:29:27.871Z,67.60
2019-02-23T02:33:32.776Z,67.40
2019-02-23T02:37:37.570Z,67.10
2019-02-23T02:41:42.585Z,67.50
2019-02-23T02:45:47.404Z,67.60
2019-02-23T02:49:56.452Z,67.80
2019-02-23T02:54:01.267Z,67.60
2019-02-23T02:58:06.090Z,68.00
2019-02-23T03:02:11.081Z,68.40
2019-02-23T03:06:16.033Z,68.30
2019-02-23T03:10:21.049Z,67.90
2019-02-23T03:14:25.942Z,68.20
2019-02-23T03:18:30.756Z,68.30
2019-02-23T03:22:35.799Z,68.20
2019-02-23T03:26:40.543Z,67.80
2019-02-23T03:30:45.397Z,67.60
2019-02-23T03:34:50.376Z,67.90
2019-02-23T03:38:55.121Z,67.60
2019-02-23T03:42:59.988Z,67.90
2019-02-23T03:47:04.879Z,67.90
2019-02-23T03:51:09.996Z,69.20
2019-02-23T03:55:14.816Z,68.40
2019-02-23T03:59:19.569Z,68.50
2019-02-23T04:03:24.399Z,68.50
2019-02-23T04:07:29.203Z,68.30
2019-02-23T04:11:34.183Z,68.40
2019-02-23T04:15:41.254Z,68.30
2019-02-23T04:19:46.394Z,68.60
2019-02-23T04:23:51.489Z,68.60
2019-02-23T04:27:57.352Z,68.50
2019-02-23T04:32:02.399Z,68.00
2019-02-23T04:36:07.208Z,68.10
2019-02-23T04:40:12.382Z,67.60
2019-02-23T04:44:17.146Z,66.80
2019-02-23T04:48:21.950Z,66.20
2019-02-23T04:52:26.984Z,64.80
2019-02-23T04:56:31.807Z,64.90
2019-02-23T05:00:37.040Z,65.20
2019-02-23T05:04:41.889Z,63.90
2019-02-23T05:08:46.611Z,64.00
2019-02-23T05:12:51.700Z,64.80
2019-02-23T05:16:56.561Z,64.60
2019-02-23T05:21:01.607Z,64.40
2019-02-23T05:25:06.424Z,64.40
2019-02-23T05:29:11.245Z,64.30
2019-02-23T05:33:16.213Z,64.40
2019-02-23T05:37:21.146Z,64.60
2019-02-23T05:41:26.224Z,64.10
2019-02-23T05:45:31.128Z,63.30
2019-02-23T05:49:37.305Z,62.90
2019-02-23T05:53:42.219Z,62.20
2019-02-23T05:57:47.042Z,62.10
2019-02-23T06:01:52.015Z,61.90
2019-02-23T06:05:56.911Z,61.50
2019-02-23T06:10:01.937Z,61.50
2019-02-23T06:14:07.017Z,61.00
2019-02-23T06:18:11.897Z,60.50
2019-02-23T06:22:17.149Z,60.00
2019-02-23T06:26:22.024Z,60.10
2019-02-23T06:30:27.058Z,60.10
2019-02-23T06:34:31.969Z,59.30
2019-02-23T06:38:36.791Z,59.10
2019-02-23T06:42:41.996Z,58.90
2019-02-23T06:46:46.904Z,58.70
2019-02-23T06:50:51.960Z,58.50
2019-02-23T06:54:58.433Z,57.90
2019-02-23T06:59:03.560Z,58.10
2019-02-23T07:03:08.901Z,57.60
2019-02-23T07:07:13.803Z,57.70
2019-02-23T07:11:18.738Z,57.70
2019-02-23T07:15:23.633Z,57.80
2019-02-23T07:19:28.627Z,58.10
2019-02-23T07:23:33.379Z,58.50
2019-02-23T07:27:38.276Z,58.00
2019-02-23T07:31:43.344Z,57.40
2019-02-23T07:35:48.085Z,57.10
2019-02-23T07:39:52.991Z,57.20
2019-02-23T07:43:57.841Z,56.10
2019-02-23T07:48:02.677Z,60.00
2019-02-23T07:52:07.937Z,56.90
2019-02-23T07:56:13.085Z,56.20
2019-02-23T08:00:18.227Z,56.50
2019-02-23T08:04:23.062Z,55.40
2019-02-23T08:08:28.076Z,55.10
2019-02-23T08:12:33.495Z,55.30
2019-02-23T08:16:38.349Z,54.60
2019-02-23T08:20:43.291Z,54.90
2019-02-23T08:24:59.203Z,55.20
2019-02-23T08:29:04.164Z,54.80
2019-02-23T08:33:09.617Z,54.20
2019-02-23T08:37:14.458Z,53.40
2019-02-23T08:41:19.492Z,52.70
2019-02-23T08:45:24.348Z,52.40
2019-02-23T08:49:30.429Z,52.40
2019-02-23T08:53:35.815Z,52.30
2019-02-23T08:57:40.719Z,52.30
2019-02-23T09:01:45.655Z,51.00
2019-02-23T09:05:50.407Z,50.20
2019-02-23T09:09:55.328Z,49.50
2019-02-23T09:14:00.074Z,47.90
2019-02-23T09:18:04.824Z,46.70
2019-02-23T09:22:09.879Z,45.20
2019-02-23T09:26:15.006Z,43.90
2019-02-23T09:30:20.081Z,41.20
2019-02-23T09:34:24.981Z,41.40
2019-02-23T09:38:29.895Z,41.00
2019-02-23T09:42:35.388Z,39.80
2019-02-23T09:46:40.276Z,39.80
2019-02-23T09:50:45.188Z,38.20
2019-02-23T09:54:49.999Z,41.20
2019-02-23T09:58:54.944Z,41.50
2019-02-23T10:03:00.130Z,40.90
2019-02-23T10:07:05.163Z,39.20
2019-02-23T10:11:10.199Z,39.10
2019-02-23T10:15:15.264Z,38.10
2019-02-23T10:19:20.088Z,38.10
2019-02-23T10:23:24.996Z,36.60
2019-02-23T10:27:29.967Z,36.60
2019-02-23T10:31:34.903Z,37.40
2019-02-23T10:35:39.788Z,40.30
2019-02-23T10:39:44.923Z,41.60
2019-02-23T10:43:49.837Z,42.00
2019-02-23T10:47:54.656Z,43.90
2019-02-23T10:51:59.760Z,43.40
2019-02-23T10:56:04.650Z,41.80
2019-02-23T11:00:15.612Z,41.50
2019-02-23T11:04:20.502Z,41.80
2019-02-23T11:08:26.288Z,40.70
2019-02-23T11:12:31.233Z,40.40
2019-02-23T11:16:36.027Z,41.00
2019-02-23T11:20:41.013Z,39.90
2019-02-23T11:24:45.895Z,40.60
2019-02-23T11:28:50.792Z,40.40
2019-02-23T11:32:55.861Z,40.70
2019-02-23T11:37:00.730Z,42.50
2019-02-23T11:41:08.607Z,40.20
2019-02-23T11:45:13.452Z,41.20
2019-02-23T11:49:18.352Z,40.00
2019-02-23T11:53:23.093Z,37.80
2019-02-23T11:57:27.983Z,34.90
2019-02-23T12:01:32.881Z,34.70
2019-02-23T12:05:37.697Z,31.70
2019-02-23T12:09:42.716Z,32.00
2019-02-23T12:13:47.620Z,34.00
2019-02-23T12:17:52.560Z,33.60
2019-02-23T12:21:57.908Z,34.20
2019-02-23T12:26:03.129Z,34.00
2019-02-23T12:30:08.327Z,34.80
2019-02-23T12:34:13.152Z,32.80
2019-02-23T12:38:18.192Z,32.70
2019-02-23T12:42:23.401Z,33.20
2019-02-23T12:46:28.319Z,34.20
2019-02-23T12:50:33.525Z,33.10
2019-02-23T12:54:38.800Z,31.60
2019-02-23T12:58:43.760Z,30.40
2019-02-23T13:02:48.684Z,30.00
2019-02-23T13:06:53.512Z,28.20
2019-02-23T13:10:59.748Z,27.00
2019-02-23T13:15:08.826Z,25.50
2019-02-23T13:19:49.940Z,25.70
2019-02-23T13:24:28.648Z,24.90
2019-02-23T13:28:57.522Z,23.30
2019-02-23T13:33:43.728Z,22.90
2019-02-23T13:38:07.904Z,22.90
2019-02-23T13:42:51.837Z,22.90
2019-02-23T13:47:21.873Z,22.50
2019-02-23T13:52:04.040Z,22.60
2019-02-23T13:56:47.759Z,21.60
2019-02-23T14:01:32.928Z,21.30
2019-02-23T14:06:10.247Z,21.80
2019-02-23T14:10:48.156Z,21.30
2019-02-23T14:15:24.720Z,21.80
2019-02-23T14:20:00.419Z,21.60
2019-02-23T14:24:57.363Z,21.10
2019-02-23T14:29:49.642Z,21.10
2019-02-23T14:34:33.409Z,20.70
2019-02-23T14:39:13.080Z,20.50
2019-02-23T14:44:09.212Z,20.00
2019-02-23T14:48:43.429Z,19.40
2019-02-23T14:53:02.043Z,18.50
2019-02-23T14:57:46.831Z,18.10
2019-02-23T15:02:32.743Z,18.80
2019-02-23T15:07:17.206Z,21.40
2019-02-23T15:11:48.692Z,21.60
2019-02-23T15:16:17.413Z,23.10
2019-02-23T15:21:23.944Z,23.80
2019-02-23T15:26:22.315Z,23.80
2019-02-23T15:30:40.649Z,24.60
2019-02-23T15:35:04.205Z,25.10
2019-02-23T15:39:47.497Z,25.30
2019-02-23T15:44:22.096Z,24.90
2019-02-23T15:48:56.573Z,25.30
2019-02-23T15:53:01.439Z,25.40
2019-02-23T15:57:06.719Z,25.40
2019-02-23T16:01:11.691Z,25.50
2019-02-23T16:05:16.510Z,25.10
2019-02-23T16:09:21.513Z,25.50
2019-02-23T16:13:26.402Z,25.60
2019-02-23T16:17:31.358Z,26.00
2019-02-23T16:21:36.520Z,26.30
2019-02-23T16:25:41.416Z,26.70
2019-02-23T16:29:46.499Z,26.70
2019-02-23T16:33:51.345Z,26.50
2019-02-23T16:37:56.464Z,25.90
2019-02-23T16:42:01.619Z,26.60
2019-02-23T16:46:06.527Z,25.60
2019-02-23T16:50:11.990Z,25.60
2019-02-23T16:54:16.900Z,25.90
2019-02-23T16:58:21.719Z,26.30
2019-02-23T17:02:29.207Z,26.30
2019-02-23T17:06:35.005Z,26.70
2019-02-23T17:10:40.125Z,26.90
2019-02-23T17:14:44.998Z,26.60
2019-02-23T17:18:49.833Z,26.40
2019-02-23T17:22:54.887Z,26.80
2019-02-23T17:26:59.713Z,27.10
2019-02-23T17:31:04.566Z,27.40
2019-02-23T17:35:09.939Z,28.00
2019-02-23T17:39:14.687Z,28.70
2019-02-23T17:43:19.871Z,29.90
2019-02-23T17:47:24.699Z,30.40
2019-02-23T17:51:30.220Z,31.00
2019-02-23T17:55:35.103Z,32.60
2019-02-23T17:59:40.075Z,33.50
2019-02-23T18:03:44.896Z,34.20
2019-02-23T18:07:49.792Z,34.70
2019-02-23T18:11:54.792Z,35.50
2019-02-23T18:15:59.548Z,36.20
2019-02-23T18:20:04.823Z,36.60
2019-02-23T18:24:09.644Z,36.60
2019-02-23T18:28:16.717Z,36.00
2019-02-23T18:32:21.621Z,35.90
2019-02-23T18:36:26.543Z,34.70
2019-02-23T18:40:32.681Z,33.60
2019-02-23T18:44:37.871Z,33.20
2019-02-23T18:48:42.766Z,33.10
2019-02-23T18:52:47.598Z,33.40
2019-02-23T18:56:52.529Z,34.10
2019-02-23T19:00:58.055Z,34.60
2019-02-23T19:05:03.555Z,34.40
2019-02-23T19:09:08.854Z,34.70
2019-02-23T19:13:15.412Z,34.40
2019-02-23T19:17:20.316Z,33.20
2019-02-23T19:21:25.458Z,33.30
2019-02-23T19:25:30.343Z,32.40
2019-02-23T19:29:35.383Z,32.00
2019-02-23T19:33:40.412Z,32.40
2019-02-23T19:37:45.167Z,32.00
2019-02-23T19:41:50.483Z,32.10
2019-02-23T19:45:55.228Z,32.00
2019-02-23T19:50:05.539Z,32.40
2019-02-23T19:54:10.448Z,32.80
2019-02-23T19:58:15.209Z,33.20
2019-02-23T20:02:20.328Z,33.30
2019-02-23T20:06:25.204Z,33.50
2019-02-23T20:10:31.161Z,33.50
2019-02-23T20:14:42.167Z,33.00
2019-02-23T20:18:47.002Z,33.40
2019-02-23T20:22:53.057Z,34.40
2019-02-23T20:26:57.944Z,34.30
2019-02-23T20:31:02.865Z,34.70
2019-02-23T20:35:07.979Z,35.00
2019-02-23T20:39:12.739Z,36.40
2019-02-23T20:43:17.764Z,36.00
2019-02-23T20:47:22.516Z,36.20
2019-02-23T20:51:27.585Z,36.70
2019-02-23T20:55:32.436Z,37.20
2019-02-23T20:59:37.538Z,37.40
2019-02-23T21:03:42.447Z,37.80
2019-02-23T21:07:47.285Z,36.70
2019-02-23T21:11:53.220Z,36.90
2019-02-23T21:15:58.049Z,36.90
2019-02-23T21:20:03.048Z,36.60
2019-02-23T21:24:09.135Z,37.40
2019-02-23T21:28:14.032Z,38.00
2019-02-23T21:32:18.999Z,38.60
2019-02-23T21:36:23.824Z,38.80
2019-02-23T21:40:28.812Z,39.20
2019-02-23T21:44:33.587Z,38.80
2019-02-23T21:48:38.607Z,38.90
2019-02-23T21:52:43.592Z,39.10
2019-02-23T21:56:48.704Z,39.40
2019-02-23T22:00:54.730Z,40.20
2019-02-23T22:04:59.522Z,40.10
2019-02-23T22:09:05.202Z,39.20
2019-02-23T22:13:11.644Z,39.00
2019-02-23T22:17:16.389Z,39.00
2019-02-23T22:21:21.284Z,39.00
2019-02-23T22:25:26.129Z,38.70
2019-02-23T22:29:33.588Z,39.60
2019-02-23T22:33:38.395Z,40.00
2019-02-23T22:37:43.236Z,40.90
2019-02-23T22:41:49.934Z,41.40
2019-02-23T22:45:55.068Z,42.20
2019-02-23T22:50:00.259Z,41.80
2019-02-23T22:54:05.313Z,41.30
2019-02-23T22:58:10.216Z,41.60
2019-02-23T23:02:15.666Z,41.60
2019-02-23T23:06:20.724Z,42.20
2019-02-23T23:10:25.701Z,42.60
2019-02-23T23:14:30.589Z,42.40
2019-02-23T23:18:35.415Z,42.60
2019-02-23T23:22:40.464Z,41.90
2019-02-23T23:26:45.358Z,42.40
2019-02-23T23:30:50.513Z,41.90
2019-02-23T23:34:55.400Z,41.90
2019-02-23T23:39:00.307Z,42.60
2019-02-23T23:43:05.335Z,43.70
2019-02-23T23:47:10.231Z,43.40
2019-02-23T23:51:16.088Z,42.60
2019-02-23T23:55:20.922Z,42.50
2019-02-23T23:59:25.870Z,42.90
